createdAt,value
2018-09-30T00:01:20.835Z,98418.00
2018-09-30T00:05:23.179Z,98411.00
2018-09-30T00:09:28.364Z,98411.00
2018-09-30T00:13:30.659Z,98402.00
2018-09-30T00:17:33.082Z,98399.00
2018-09-30T00:21:35.372Z,98403.00
2018-09-30T00:26:41.160Z,98396.00
2018-09-30T00:30:43.527Z,98408.00
2018-09-30T00:34:45.826Z,98398.00
2018-09-30T00:38:48.497Z,98400.00
2018-09-30T00:42:50.817Z,98404.00
2018-09-30T00:46:53.590Z,98392.00
2018-09-30T00:50:55.862Z,98386.00
2018-09-30T00:54:58.157Z,98386.00
2018-09-30T00:59:00.446Z,98386.00
2018-09-30T01:03:02.746Z,98385.00
2018-09-30T01:07:05.365Z,98375.00
2018-09-30T01:11:07.733Z,98375.00
2018-09-30T01:15:10.057Z,98372.00
2018-09-30T01:19:12.355Z,98372.00
2018-09-30T01:23:14.620Z,98370.00
2018-09-30T01:27:16.965Z,98356.00
2018-09-30T01:31:19.276Z,98361.00
2018-09-30T01:35:21.557Z,98356.00
2018-09-30T01:39:23.851Z,98348.00
2018-09-30T01:43:26.293Z,98338.00
2018-09-30T01:47:28.565Z,98325.00
2018-09-30T01:51:30.838Z,98332.00
2018-09-30T01:55:33.166Z,98326.00
2018-09-30T01:59:35.406Z,98324.00
2018-09-30T02:03:37.730Z,98321.00
2018-09-30T02:07:39.991Z,98313.00
2018-09-30T02:11:42.290Z,98308.00
2018-09-30T02:15:44.656Z,98309.00
2018-09-30T02:19:46.965Z,98306.00
2018-09-30T02:23:49.236Z,98312.00
2018-09-30T02:27:51.508Z,98313.00
2018-09-30T02:31:53.782Z,98310.00
2018-09-30T02:35:56.090Z,98308.00
2018-09-30T02:39:58.370Z,98305.00
2018-09-30T02:44:00.627Z,98295.00
2018-09-30T02:48:02.937Z,98282.00
2018-09-30T02:52:05.265Z,98279.00
2018-09-30T02:56:07.524Z,98272.00
2018-09-30T03:00:10.006Z,98271.00
2018-09-30T03:04:12.287Z,98266.00
2018-09-30T03:08:20.221Z,98261.00
2018-09-30T03:12:22.478Z,98252.00
2018-09-30T03:16:24.764Z,98247.00
2018-09-30T03:20:27.149Z,98237.00
2018-09-30T03:24:29.396Z,98225.00
2018-09-30T03:28:31.658Z,98221.00
2018-09-30T03:32:33.995Z,98221.00
2018-09-30T03:36:36.309Z,98217.00
2018-09-30T03:40:38.641Z,98223.00
2018-09-30T03:44:40.950Z,98208.00
2018-09-30T03:48:43.234Z,98217.00
2018-09-30T03:52:45.573Z,98197.00
2018-09-30T03:56:47.928Z,98194.00
2018-09-30T04:00:50.378Z,98194.00
2018-09-30T04:04:52.608Z,98184.00
2018-09-30T04:08:54.853Z,98183.00
2018-09-30T04:12:57.377Z,98175.00
2018-09-30T04:16:59.739Z,98177.00
2018-09-30T04:21:02.011Z,98180.00
2018-09-30T04:25:04.545Z,98180.00
2018-09-30T04:29:06.914Z,98174.00
2018-09-30T04:33:09.218Z,98181.00
2018-09-30T04:37:11.460Z,98182.00
2018-09-30T04:41:13.789Z,98180.00
2018-09-30T04:45:16.038Z,98172.00
2018-09-30T04:49:18.283Z,98172.00
2018-09-30T04:53:20.499Z,98178.00
2018-09-30T04:57:22.754Z,98169.00
2018-09-30T05:01:25.025Z,98165.00
2018-09-30T05:05:27.378Z,98157.00
2018-09-30T05:09:29.703Z,98164.00
2018-09-30T05:13:32.103Z,98156.00
2018-09-30T05:17:34.384Z,98156.00
2018-09-30T05:21:36.639Z,98156.00
2018-09-30T05:25:39.163Z,98159.00
2018-09-30T05:29:41.518Z,98176.00
2018-09-30T05:33:43.764Z,98165.00
2018-09-30T05:37:46.047Z,98175.00
2018-09-30T05:41:48.314Z,98178.00
2018-09-30T05:45:50.678Z,98168.00
2018-09-30T05:49:52.973Z,98163.00
2018-09-30T05:53:55.520Z,98164.00
2018-09-30T05:57:58.148Z,98172.00
2018-09-30T06:02:00.418Z,98168.00
2018-09-30T06:06:02.701Z,98168.00
2018-09-30T06:10:05.043Z,98171.00
2018-09-30T06:14:07.919Z,98166.00
2018-09-30T06:18:10.147Z,98165.00
2018-09-30T06:22:12.483Z,98164.00
2018-09-30T06:26:14.789Z,98158.00
2018-09-30T06:30:17.165Z,98157.00
2018-09-30T06:34:19.462Z,98160.00
2018-09-30T06:38:21.763Z,98153.00
2018-09-30T06:42:24.046Z,98150.00
2018-09-30T06:46:26.343Z,98150.00
2018-09-30T06:50:28.685Z,98150.00
2018-09-30T06:54:31.330Z,98154.00
2018-09-30T06:58:33.983Z,98152.00
2018-09-30T07:02:36.373Z,98155.00
2018-09-30T07:10:51.128Z,98147.00
2018-09-30T07:14:53.452Z,98149.00
2018-09-30T07:18:55.882Z,98145.00
2018-09-30T07:22:58.257Z,98124.00
2018-09-30T07:27:00.588Z,98134.00
2018-09-30T07:31:02.903Z,98133.00
2018-09-30T07:35:05.212Z,98137.00
2018-09-30T07:39:08.422Z,98142.00
2018-09-30T07:43:10.793Z,98145.00
2018-09-30T07:47:13.079Z,98138.00
2018-09-30T07:51:15.528Z,98139.00
2018-09-30T07:55:17.987Z,98120.00
2018-09-30T07:59:20.502Z,97989.00
2018-09-30T08:03:22.842Z,98112.00
2018-09-30T08:07:25.154Z,98118.00
2018-09-30T08:11:27.463Z,98114.00
2018-09-30T08:15:29.789Z,98104.00
2018-09-30T08:19:35.423Z,98103.00
2018-09-30T08:23:37.762Z,98111.00
2018-09-30T08:27:40.124Z,98109.00
2018-09-30T08:31:42.426Z,98104.00
2018-09-30T08:35:49.400Z,98103.00
2018-09-30T08:39:51.862Z,98094.00
2018-09-30T08:43:54.219Z,98096.00
2018-09-30T08:47:56.666Z,98085.00
2018-09-30T08:51:59.054Z,98084.00
2018-09-30T08:56:01.443Z,98076.00
2018-09-30T09:00:03.904Z,98083.00
2018-09-30T09:04:06.298Z,98082.00
2018-09-30T09:08:08.668Z,98076.00
2018-09-30T09:12:11.018Z,98080.00
2018-09-30T09:16:13.333Z,98093.00
2018-09-30T09:20:15.701Z,98074.00
2018-09-30T09:24:17.974Z,98066.00
2018-09-30T09:28:20.304Z,98064.00
2018-09-30T09:32:22.628Z,98075.00
2018-09-30T09:36:25.782Z,98065.00
2018-09-30T09:40:28.234Z,98061.00
2018-09-30T09:44:30.571Z,98064.00
2018-09-30T09:48:32.880Z,98065.00
2018-09-30T09:52:36.801Z,98045.00
2018-09-30T09:56:39.066Z,98041.00
2018-09-30T10:00:44.400Z,98043.00
2018-09-30T10:04:46.716Z,98032.00
2018-09-30T10:08:49.048Z,98030.00
2018-09-30T10:12:51.365Z,98025.00
2018-09-30T10:16:53.758Z,98022.00
2018-09-30T10:20:57.338Z,98024.00
2018-09-30T10:24:59.648Z,98023.00
2018-09-30T10:29:02.363Z,98021.00
2018-09-30T10:33:04.803Z,98016.00
2018-09-30T10:37:07.505Z,97999.00
2018-09-30T10:41:11.705Z,97995.00
2018-09-30T10:45:14.013Z,97986.00
2018-09-30T10:49:18.479Z,97983.00
2018-09-30T10:53:20.832Z,97978.00
2018-09-30T10:57:23.371Z,97972.00
2018-09-30T11:01:26.943Z,97955.00
2018-09-30T11:05:30.757Z,97957.00
2018-09-30T11:09:33.128Z,97964.00
2018-09-30T11:13:35.555Z,97960.00
2018-09-30T11:17:38.043Z,97958.00
2018-09-30T11:21:43.949Z,97961.00
2018-09-30T11:25:47.263Z,97958.00
2018-09-30T11:29:52.136Z,97947.00
2018-09-30T11:33:54.731Z,97933.00
2018-09-30T11:37:57.146Z,97938.00
2018-09-30T11:41:59.511Z,97924.00
2018-09-30T11:46:02.073Z,97917.00
2018-09-30T11:50:05.716Z,97903.00
2018-09-30T11:54:08.978Z,97904.00
2018-09-30T11:58:11.447Z,97896.00
2018-09-30T12:02:13.910Z,97892.00
2018-09-30T12:06:16.348Z,97888.00
2018-09-30T12:10:18.752Z,97883.00
2018-09-30T12:14:21.035Z,97878.00
2018-09-30T12:18:23.383Z,97867.00
2018-09-30T12:22:25.764Z,97860.00
2018-09-30T12:26:28.092Z,97863.00
2018-09-30T12:30:30.507Z,97850.00
2018-09-30T12:34:32.892Z,97845.00
2018-09-30T12:38:35.201Z,97842.00
2018-09-30T12:42:37.491Z,97847.00
2018-09-30T12:46:39.954Z,97845.00
2018-09-30T12:50:42.287Z,97842.00
2018-09-30T12:54:44.670Z,97843.00
2018-09-30T12:58:46.989Z,97831.00
2018-09-30T13:02:49.396Z,97839.00
2018-09-30T13:06:51.884Z,97835.00
2018-09-30T13:10:54.220Z,97826.00
2018-09-30T13:14:57.244Z,97825.00
2018-09-30T13:18:59.559Z,97826.00
2018-09-30T13:23:01.906Z,97823.00
2018-09-30T13:27:04.294Z,97824.00
2018-09-30T13:31:06.956Z,97816.00
2018-09-30T13:35:09.298Z,97812.00
2018-09-30T13:39:11.716Z,97805.00
2018-09-30T13:43:14.048Z,97797.00
2018-09-30T13:47:16.489Z,97790.00
2018-09-30T13:51:19.173Z,97784.00
2018-09-30T13:55:21.715Z,97792.00
2018-09-30T13:59:24.354Z,97783.00
2018-09-30T14:03:26.804Z,97790.00
2018-09-30T14:07:29.330Z,97785.00
2018-09-30T14:11:32.144Z,97776.00
2018-09-30T14:15:34.514Z,97775.00
2018-09-30T14:19:36.852Z,97775.00
2018-09-30T14:23:39.185Z,97772.00
2018-09-30T14:27:41.560Z,97767.00
2018-09-30T14:31:43.883Z,97771.00
2018-09-30T14:35:46.890Z,97760.00
2018-09-30T14:39:49.558Z,97762.00
2018-09-30T14:43:52.144Z,97756.00
2018-09-30T14:47:54.555Z,97753.00
2018-09-30T14:51:56.910Z,97749.00
2018-09-30T14:55:59.333Z,97739.00
2018-09-30T15:00:01.698Z,97733.00
2018-09-30T15:04:04.206Z,97731.00
2018-09-30T15:08:06.546Z,97720.00
2018-09-30T15:12:09.121Z,97723.00
2018-09-30T15:16:11.620Z,97718.00
2018-09-30T15:20:14.244Z,97714.00
2018-09-30T15:24:16.743Z,97716.00
2018-09-30T15:28:19.199Z,97714.00
2018-09-30T15:32:21.570Z,97716.00
2018-09-30T15:36:24.014Z,97707.00
2018-09-30T15:40:26.546Z,97705.00
2018-09-30T15:44:28.973Z,97697.00
2018-09-30T15:48:31.371Z,97703.00
2018-09-30T15:52:33.712Z,97704.00
2018-09-30T15:56:36.230Z,97704.00
2018-09-30T16:00:38.712Z,97709.00
2018-09-30T16:04:41.205Z,97708.00
2018-09-30T16:08:43.556Z,97702.00
2018-09-30T16:12:45.965Z,97695.00
2018-09-30T16:16:48.426Z,97697.00
2018-09-30T16:20:50.842Z,97690.00
2018-09-30T16:24:53.196Z,97695.00
2018-09-30T16:28:55.514Z,97692.00
2018-09-30T16:32:57.880Z,97685.00
2018-09-30T16:37:00.238Z,97688.00
2018-09-30T16:41:02.625Z,97685.00
2018-09-30T16:45:05.019Z,97695.00
2018-09-30T16:49:07.332Z,97692.00
2018-09-30T16:53:09.740Z,97693.00
2018-09-30T16:57:12.095Z,97694.00
2018-09-30T17:01:14.575Z,97692.00
2018-09-30T17:05:16.977Z,97694.00
2018-09-30T17:09:19.337Z,97701.00
2018-09-30T17:13:21.774Z,97712.00
2018-09-30T17:17:24.140Z,97709.00
2018-09-30T17:21:26.652Z,97715.00
2018-09-30T17:25:29.153Z,97716.00
2018-09-30T17:29:31.515Z,97716.00
2018-09-30T17:33:33.883Z,97726.00
2018-09-30T17:37:36.289Z,97727.00
2018-09-30T17:41:38.614Z,97724.00
2018-09-30T17:45:41.014Z,97723.00
2018-09-30T17:49:43.364Z,97712.00
2018-09-30T17:53:46.103Z,97711.00
2018-09-30T17:57:48.530Z,97707.00
2018-09-30T18:01:50.893Z,97706.00
2018-09-30T18:05:53.560Z,97702.00
2018-09-30T18:09:55.960Z,97697.00
2018-09-30T18:13:58.291Z,97692.00
2018-09-30T18:18:01.935Z,97708.00
2018-09-30T18:22:04.359Z,97701.00
2018-09-30T18:26:06.743Z,97707.00
2018-09-30T18:30:09.633Z,97707.00
2018-09-30T18:34:11.995Z,97703.00
2018-09-30T18:38:14.358Z,97714.00
2018-09-30T18:42:16.739Z,97704.00
2018-09-30T18:46:19.485Z,97710.00
2018-09-30T18:50:22.588Z,97704.00
2018-09-30T18:54:25.313Z,97693.00
2018-09-30T18:58:27.961Z,97696.00
2018-09-30T19:02:30.732Z,97697.00
2018-09-30T19:06:33.685Z,97701.00
2018-09-30T19:10:36.382Z,97695.00
2018-09-30T19:14:39.132Z,97699.00
2018-09-30T19:18:41.930Z,97690.00
2018-09-30T19:22:44.736Z,97694.00
2018-09-30T19:26:47.218Z,97686.00
2018-09-30T19:30:49.774Z,97692.00
2018-09-30T19:34:52.204Z,97687.00
2018-09-30T19:38:54.583Z,97688.00
2018-09-30T19:42:56.963Z,97681.00
2018-09-30T19:46:59.385Z,97678.00
2018-09-30T19:51:01.729Z,97683.00
2018-09-30T19:55:04.568Z,97679.00
2018-09-30T19:59:06.967Z,97681.00
2018-09-30T20:03:09.607Z,97686.00
2018-09-30T20:07:12.118Z,97687.00
2018-09-30T20:11:14.588Z,97698.00
2018-09-30T20:15:17.023Z,97690.00
2018-09-30T20:19:19.467Z,97694.00
2018-09-30T20:23:22.100Z,97692.00
2018-09-30T20:27:24.469Z,97696.00
2018-09-30T20:31:26.829Z,97693.00
2018-09-30T20:35:29.179Z,97685.00
2018-09-30T20:39:31.528Z,97689.00
2018-09-30T20:43:33.855Z,97688.00
2018-09-30T20:47:36.198Z,97685.00
2018-09-30T20:51:38.504Z,97692.00
2018-09-30T20:55:40.888Z,97690.00
2018-09-30T20:59:43.221Z,97685.00
2018-09-30T21:03:51.301Z,97682.00
2018-09-30T21:07:56.149Z,97676.00
2018-09-30T21:11:59.702Z,97686.00
2018-09-30T21:16:07.573Z,97685.00
2018-09-30T21:20:16.927Z,97676.00
2018-09-30T21:24:21.072Z,97672.00
2018-09-30T21:28:23.479Z,97667.00
2018-09-30T21:32:25.835Z,97673.00
2018-09-30T21:36:28.221Z,97672.00
2018-09-30T21:40:30.558Z,97600.00
2018-09-30T21:44:33.032Z,97657.00
2018-09-30T21:48:35.441Z,97656.00
2018-09-30T21:52:37.877Z,97650.00
2018-09-30T21:56:40.266Z,97658.00
2018-09-30T22:00:44.065Z,97660.00
2018-09-30T22:04:46.445Z,97659.00
2018-09-30T22:08:48.782Z,97648.00
2018-09-30T22:12:51.162Z,97647.00
2018-09-30T22:16:53.671Z,97647.00
2018-09-30T22:20:55.983Z,97651.00
2018-09-30T22:24:58.308Z,97641.00
2018-09-30T22:29:00.601Z,97648.00
2018-09-30T22:33:03.347Z,97648.00
2018-09-30T22:37:05.677Z,97644.00
2018-09-30T22:41:07.966Z,97644.00
2018-09-30T22:45:10.351Z,97646.00
2018-09-30T22:49:12.645Z,97633.00
2018-09-30T22:53:14.903Z,97632.00
2018-09-30T22:57:17.182Z,97632.00
2018-09-30T23:01:19.458Z,97632.00
2018-09-30T23:05:21.839Z,97638.00
2018-09-30T23:09:24.147Z,97634.00
2018-09-30T23:13:26.400Z,97633.00
2018-09-30T23:17:28.730Z,97635.00
2018-09-30T23:21:31.175Z,97631.00
2018-09-30T23:25:33.499Z,97642.00
2018-09-30T23:29:35.801Z,97630.00
2018-09-30T23:33:38.097Z,97634.00
2018-09-30T23:37:40.439Z,97628.00
2018-09-30T23:41:42.731Z,97635.00
2018-09-30T23:45:45.156Z,97639.00
2018-09-30T23:49:49.174Z,97635.00
2018-09-30T23:53:51.541Z,97644.00
2018-09-30T23:58:04.245Z,97643.00
